Time;durP1;ratioP1;P1;durP2;ratioP2;P2;SDS_P1;SDS_P2;PMS_P1;PMS_P2;Temp;Humidity;BMP_temperature;BMP_pressure;BME280_temperature;BME280_humidity;BME280_pressure;Samples;Min_cycle;Max_cycle;Signal;HPM_P1;HPM_P2
2022/07/20 00:00:09;;;;;;;2.43;1.87;;;;;;;20.10;63.00;101034.28;5041274;28;20663;-75
2022/07/20 00:02:39;;;;;;;5.50;2.33;;;;;;;20.04;63.67;101026.75;5045112;28;20199;-75
2022/07/20 00:05:06;;;;;;;2.47;2.27;;;;;;;19.97;64.67;101033.34;5029729;28;20195;-74
2022/07/20 00:07:34;;;;;;;4.63;2.17;;;;;;;19.86;64.76;101026.88;5022661;28;20218;-74
2022/07/20 00:12:44;;;;;;;2.90;1.97;;;;;;;19.80;67.25;101029.88;5040992;28;20571;-74
2022/07/20 00:15:11;;;;;;;2.73;2.20;;;;;;;19.71;65.63;101027.75;5049726;28;20222;-74
2022/07/20 00:17:37;;;;;;;2.37;2.10;;;;;;;19.66;68.01;101030.69;5045726;28;20222;-74
2022/07/20 00:20:05;;;;;;;3.43;2.23;;;;;;;19.57;68.48;101025.88;5048952;28;20737;-74
2022/07/20 00:22:32;;;;;;;3.03;2.20;;;;;;;19.51;69.20;101036.84;5042954;28;20193;-74
2022/07/20 00:24:59;;;;;;;2.40;2.20;;;;;;;19.44;70.07;101033.69;5043399;28;20669;-74
2022/07/20 00:27:26;;;;;;;2.73;2.10;;;;;;;19.37;71.17;101037.63;5030336;28;20246;-74
2022/07/20 00:29:52;;;;;;;11.33;2.50;;;;;;;19.34;71.10;101039.59;5024328;28;20188;-74
2022/07/20 00:32:18;;;;;;;3.70;2.40;;;;;;;19.31;73.30;101043.22;5042971;28;20202;-75
2022/07/20 00:34:45;;;;;;;3.53;2.30;;;;;;;19.22;72.52;101041.94;5050463;28;20222;-74
2022/07/20 00:37:13;;;;;;;3.00;2.07;;;;;;;19.20;74.08;101043.84;5047523;28;20213;-74
2022/07/20 00:39:39;;;;;;;2.97;2.53;;;;;;;19.13;74.93;101037.19;5033578;28;20199;-74
2022/07/20 00:42:07;;;;;;;3.23;2.23;;;;;;;19.05;73.97;101034.09;5027890;28;20211;-74
2022/07/20 00:44:34;;;;;;;2.90;1.83;;;;;;;19.02;74.21;101034.31;5028301;28;20222;-74
2022/07/20 00:47:00;;;;;;;2.87;2.40;;;;;;;18.97;73.69;101029.25;5041178;28;20586;-74
2022/07/20 00:49:27;;;;;;;4.47;2.30;;;;;;;18.97;75.17;101034.53;5041824;28;20209;-74
2022/07/20 00:51:53;;;;;;;3.63;2.20;;;;;;;18.93;73.69;101035.66;5050929;28;20285;-74
2022/07/20 00:54:20;;;;;;;5.37;2.67;;;;;;;18.88;74.14;101032.41;5040202;28;20215;-74
2022/07/20 00:56:47;;;;;;;4.23;2.17;;;;;;;18.90;76.55;101033.19;5026479;28;20219;-74
2022/07/20 00:59:15;;;;;;;3.30;2.17;;;;;;;18.83;76.56;101035.28;5045779;28;20188;-74
2022/07/20 01:01:42;;;;;;;3.00;2.33;;;;;;;18.74;76.65;101031.31;5043560;28;20191;-74
2022/07/20 01:04:08;;;;;;;5.03;2.50;;;;;;;18.67;77.26;101037.03;5038645;28;20203;-74
2022/07/20 01:06:34;;;;;;;4.70;2.30;;;;;;;18.59;77.88;101037.44;5050886;28;20610;-73
2022/07/20 01:09:01;;;;;;;2.70;2.30;;;;;;;18.55;78.49;101027.97;5058981;28;20199;-74
2022/07/20 01:11:27;;;;;;;2.23;2.03;;;;;;;18.54;79.28;101028.91;5045851;28;20205;-74
2022/07/20 01:14:00;;;;;;;3.43;2.20;;;;;;;18.45;79.71;101026.75;5045204;28;20215;-74
2022/07/20 01:16:28;;;;;;;4.33;2.40;;;;;;;18.40;80.13;101026.13;5031425;28;20215;-74
2022/07/20 01:18:54;;;;;;;4.47;2.57;;;;;;;18.38;80.31;101026.25;5038199;28;20218;-74
2022/07/20 01:21:22;;;;;;;3.03;2.40;;;;;;;18.40;80.28;101026.13;5054774;28;20204;-74
2022/07/20 01:23:49;;;;;;;4.07;2.60;;;;;;;18.37;81.42;101021.88;5044979;28;20203;-75
2022/07/20 01:26:17;;;;;;;3.33;2.73;;;;;;;18.31;80.88;101025.69;5055664;28;20225;-75
2022/07/20 01:28:44;;;;;;;2.77;2.27;;;;;;;18.33;82.39;101034.38;5046735;28;20673;-74
2022/07/20 01:31:11;;;;;;;2.73;2.30;;;;;;;18.28;81.81;101043.47;5052660;28;20198;-75
2022/07/20 01:33:37;;;;;;;2.80;2.30;;;;;;;18.24;83.74;101039.28;5047230;28;20274;-74
2022/07/20 01:36:04;;;;;;;3.30;2.03;;;;;;;18.23;83.06;101034.94;5055131;28;20234;-74
2022/07/20 01:38:32;;;;;;;2.60;2.20;;;;;;;18.15;83.57;101036.19;5048975;28;20202;-74
2022/07/20 01:40:58;;;;;;;6.90;2.60;;;;;;;18.15;86.36;101025.66;5029690;28;20188;-74
2022/07/20 01:43:25;;;;;;;3.60;2.60;;;;;;;18.16;86.94;101026.50;5046398;28;20199;-75
2022/07/20 01:45:52;;;;;;;5.27;2.63;;;;;;;18.06;85.96;101023.44;5051584;28;20211;-74
2022/07/20 01:48:18;;;;;;;3.07;2.53;;;;;;;18.02;86.52;101018.44;5032874;28;20216;-74
2022/07/20 01:50:44;;;;;;;2.83;2.43;;;;;;;17.97;84.64;101022.13;5042293;28;20214;-74
2022/07/20 01:53:11;;;;;;;3.40;2.50;;;;;;;17.96;85.78;101020.44;5051262;28;20195;-74
2022/07/20 01:55:38;;;;;;;4.97;2.70;;;;;;;17.92;87.27;101021.53;5047902;28;20211;-74
2022/07/20 01:58:05;;;;;;;3.73;2.70;;;;;;;17.92;88.66;101018.91;5037256;28;20206;-75
2022/07/20 02:00:32;;;;;;;4.50;2.50;;;;;;;17.87;88.92;101020.91;5058474;28;20217;-74
2022/07/20 02:02:59;;;;;;;4.37;2.70;;;;;;;17.81;88.43;101022.97;5055629;28;20675;-75
2022/07/20 02:05:25;;;;;;;3.13;2.63;;;;;;;17.84;88.53;101021.03;5025167;28;20652;-74
2022/07/20 02:07:52;;;;;;;6.03;2.63;;;;;;;17.78;89.52;101021.31;5046986;28;20212;-74
2022/07/20 02:10:18;;;;;;;4.33;2.53;;;;;;;17.75;89.84;101018.88;5067610;28;20203;-75
2022/07/20 02:12:46;;;;;;;3.27;2.90;;;;;;;17.73;90.01;101020.69;5045613;28;20209;-74
2022/07/20 02:16:14;;;;;;;2.57;2.37;;;;;;;17.70;91.51;101020.88;5045116;28;20208;-74
2022/07/20 02:18:05;;;;;;;2.70;2.37;;;;;;;17.69;92.45;101014.72;5056860;28;20265;-74
2022/07/20 02:20:31;;;;;;;2.73;2.47;;;;;;;17.65;91.72;101013.19;5050200;28;20196;-74
2022/07/20 02:22:57;;;;;;;5.63;3.03;;;;;;;17.64;92.17;101014.09;5048787;28;20561;-74
2022/07/20 02:25:24;;;;;;;5.83;2.93;;;;;;;17.57;93.33;101016.22;5058190;28;20676;-74
2022/07/20 02:27:52;;;;;;;3.30;2.53;;;;;;;17.52;93.46;101012.94;5057332;28;20253;-74
2022/07/20 02:30:19;;;;;;;4.47;2.70;;;;;;;17.47;93.06;101022.84;5042341;28;20199;-74
2022/07/20 02:32:46;;;;;;;4.57;2.40;;;;;;;17.46;94.95;101022.94;5038542;28;20200;-73
2022/07/20 02:35:13;;;;;;;3.77;2.70;;;;;;;17.43;94.58;101021.31;5051312;28;20210;-73
2022/07/20 02:37:39;;;;;;;3.10;2.80;;;;;;;17.37;94.79;101027.72;5036700;28;20219;-74
2022/07/20 02:40:07;;;;;;;6.13;3.00;;;;;;;17.35;94.80;101023.44;5050535;28;20200;-74
2022/07/20 02:42:33;;;;;;;3.03;2.60;;;;;;;17.32;95.30;101021.81;5052590;28;20207;-74
2022/07/20 02:45:01;;;;;;;3.10;2.47;;;;;;;17.41;95.41;101023.13;5039708;28;20203;-73
2022/07/20 02:47:28;;;;;;;2.63;2.40;;;;;;;17.32;95.01;101027.06;5052665;28;20229;-74
2022/07/20 02:49:54;;;;;;;3.07;2.50;;;;;;;17.32;95.93;101023.59;5032321;28;20195;-74
2022/07/20 02:52:21;;;;;;;3.37;2.40;;;;;;;17.27;95.42;101025.59;5043052;28;20627;-74
2022/07/20 02:54:47;;;;;;;4.57;2.60;;;;;;;17.17;95.91;101020.75;5031906;28;20206;-73
2022/07/20 02:57:13;;;;;;;3.70;2.90;;;;;;;17.12;96.19;101014.00;5048213;28;20222;-74
2022/07/20 02:59:40;;;;;;;3.07;2.53;;;;;;;17.16;96.79;101020.84;5025389;28;20450;-74
2022/07/20 03:02:08;;;;;;;4.30;2.90;;;;;;;17.19;97.66;101015.44;5051004;28;20674;-74
2022/07/20 03:04:34;;;;;;;4.20;2.80;;;;;;;17.09;97.23;101020.25;5052171;28;20193;-74
2022/07/20 03:07:00;;;;;;;2.83;2.40;;;;;;;17.12;98.52;101014.00;5048138;28;20218;-73
2022/07/20 03:09:27;;;;;;;3.57;2.53;;;;;;;17.08;98.33;101015.94;5048914;28;20391;-74
2022/07/20 03:11:53;;;;;;;3.73;2.80;;;;;;;17.05;98.15;101018.72;5046949;28;20198;-74
2022/07/20 03:14:20;;;;;;;3.80;2.77;;;;;;;17.02;98.38;101019.69;5058345;28;20203;-75
2022/07/20 03:16:50;;;;;;;2.63;2.37;;;;;;;17.04;98.76;101011.72;5054886;28;20229;-74
2022/07/20 03:19:18;;;;;;;3.47;2.57;;;;;;;16.99;98.03;101014.59;5040428;28;20242;-74
2022/07/20 03:21:45;;;;;;;3.43;2.77;;;;;;;16.97;98.85;101015.56;5043281;28;20203;-74
2022/07/20 03:24:11;;;;;;;3.27;2.60;;;;;;;16.99;99.49;101024.25;5052991;28;20210;-75
2022/07/20 03:26:38;;;;;;;3.73;2.80;;;;;;;17.02;98.91;101022.31;5060155;28;20241;-74
2022/07/20 03:29:04;;;;;;;3.73;2.90;;;;;;;17.07;99.43;101019.50;5050074;28;20208;-74
2022/07/20 03:31:30;;;;;;;3.10;2.50;;;;;;;17.12;98.63;101028.03;5045912;28;20285;-74
2022/07/20 03:33:57;;;;;;;4.27;2.87;;;;;;;17.12;97.38;101027.19;5053675;28;20205;-74
2022/07/20 03:36:24;;;;;;;4.27;3.13;;;;;;;17.14;98.46;101025.31;5032751;28;20228;-74
2022/07/20 03:38:51;;;;;;;3.60;3.20;;;;;;;17.09;98.14;101032.59;5034400;28;20191;-73
2022/07/20 03:41:17;;;;;;;3.90;3.00;;;;;;;17.11;99.47;101039.47;5062394;28;20239;-75
2022/07/20 03:43:44;;;;;;;4.17;3.20;;;;;;;17.19;99.80;101033.88;5029451;28;20206;-74
2022/07/20 03:46:11;;;;;;;3.73;3.20;;;;;;;17.25;99.20;101040.63;5046352;28;20223;-74
2022/07/20 03:48:37;;;;;;;6.40;3.00;;;;;;;17.25;99.24;101045.91;5052012;28;20353;-74
2022/07/20 03:51:04;;;;;;;3.53;2.80;;;;;;;17.25;99.63;101040.63;5047925;28;20203;-74
2022/07/20 03:53:32;;;;;;;3.83;2.93;;;;;;;17.25;98.56;101051.16;5048770;28;20220;-74
2022/07/20 03:55:58;;;;;;;4.40;3.17;;;;;;;17.25;98.14;101049.38;5053254;28;20215;-74
2022/07/20 03:58:24;;;;;;;3.37;3.03;;;;;;;17.35;98.74;101044.53;5035317;28;20211;-74
2022/07/20 04:00:51;;;;;;;3.50;3.10;;;;;;;17.35;97.40;101048.00;5046448;28;20192;-74
2022/07/20 04:03:17;;;;;;;4.03;2.87;;;;;;;17.42;96.95;101038.88;5046570;28;20243;-74
2022/07/20 04:05:44;;;;;;;3.30;2.83;;;;;;;17.50;96.53;101040.28;5050950;28;20195;-74
2022/07/20 04:08:10;;;;;;;6.20;3.23;;;;;;;17.57;97.11;101042.56;5050688;28;20684;-74
2022/07/20 04:10:38;;;;;;;5.03;3.57;;;;;;;17.67;96.74;101045.59;5033991;28;20203;-74
2022/07/20 04:13:05;;;;;;;4.97;3.00;;;;;;;17.70;97.17;101048.09;5045858;28;20199;-74
2022/07/20 04:15:32;;;;;;;4.07;3.30;;;;;;;17.81;96.46;101049.34;5055276;28;20589;-74
2022/07/20 04:17:59;;;;;;;7.83;3.20;;;;;;;17.90;96.60;101046.28;5031679;28;20203;-74
2022/07/20 04:20:25;;;;;;;3.77;3.13;;;;;;;17.98;96.29;101046.75;5039719;28;20248;-74
2022/07/20 04:22:51;;;;;;;6.20;3.03;;;;;;;18.03;96.09;101047.38;5043138;28;20294;-74
2022/07/20 04:25:18;;;;;;;4.57;3.23;;;;;;;18.06;96.59;101044.56;5043528;28;20196;-74
2022/07/20 04:27:46;;;;;;;6.97;2.90;;;;;;;18.23;95.20;101051.63;5043276;28;20222;-74
2022/07/20 04:30:13;;;;;;;3.97;3.00;;;;;;;18.38;93.23;101050.00;5045285;28;20318;-74
2022/07/20 04:32:40;;;;;;;4.50;3.40;;;;;;;18.58;92.99;101056.00;5036001;28;20227;-74
2022/07/20 04:35:08;;;;;;;4.03;3.13;;;;;;;18.69;90.48;101057.13;5040383;28;20215;-74
2022/07/20 04:37:34;;;;;;;3.23;2.93;;;;;;;18.82;90.83;101056.50;5048660;28;20220;-75
2022/07/20 04:40:01;;;;;;;4.20;3.00;;;;;;;18.87;90.77;101065.91;5037775;28;20709;-74
2022/07/20 04:42:28;;;;;;;4.00;3.30;;;;;;;18.92;90.67;101063.00;5054284;28;20289;-75
2022/07/20 04:44:56;;;;;;;3.40;2.83;;;;;;;19.01;90.58;101067.78;5027133;28;20206;-74
2022/07/20 04:47:22;;;;;;;6.67;3.30;;;;;;;19.10;90.62;101069.94;5040937;28;20219;-75
2022/07/20 04:49:49;;;;;;;6.27;3.53;;;;;;;19.20;85.45;101077.34;5044972;28;20203;-74
2022/07/20 04:52:16;;;;;;;6.47;3.10;;;;;;;19.30;83.50;101075.91;5040847;28;20539;-74
2022/07/20 04:54:43;;;;;;;5.23;3.50;;;;;;;19.44;83.92;101070.69;5054727;28;20265;-74
2022/07/20 04:57:09;;;;;;;4.93;3.23;;;;;;;19.60;86.96;101072.47;5052666;28;20220;-74
2022/07/20 04:59:37;;;;;;;6.57;3.07;;;;;;;19.71;86.52;101061.28;5053277;28;20203;-74
2022/07/20 05:02:05;;;;;;;4.23;3.00;;;;;;;19.84;85.78;101064.94;5036666;28;20319;-74
2022/07/20 05:04:31;;;;;;;3.83;3.13;;;;;;;19.99;81.75;101073.78;5048385;28;20199;-74
2022/07/20 05:06:58;;;;;;;6.50;3.43;;;;;;;20.13;79.60;101070.34;5039518;28;20215;-75
2022/07/20 05:09:24;;;;;;;5.20;3.40;;;;;;;20.30;79.07;101074.59;5043658;28;20652;-76
2022/07/20 05:11:51;;;;;;;4.93;3.33;;;;;;;20.45;78.96;101080.78;5046267;28;20307;-73
2022/07/20 05:14:17;;;;;;;3.77;3.33;;;;;;;20.60;78.24;101075.41;5032760;28;20195;-73
2022/07/20 05:16:45;;;;;;;5.70;3.50;;;;;;;20.76;78.03;101070.06;5048244;28;20225;-74
2022/07/20 05:19:12;;;;;;;3.97;3.47;;;;;;;20.91;78.70;101062.94;5038035;28;20195;-74
2022/07/20 05:21:39;;;;;;;3.90;3.50;;;;;;;21.04;77.33;101072.78;5043964;28;20195;-74
2022/07/20 05:24:06;;;;;;;5.53;3.50;;;;;;;21.19;75.76;101069.16;5055124;28;20553;-73
2022/07/20 05:26:32;;;;;;;5.07;3.67;;;;;;;21.32;77.10;101071.88;5049427;28;20206;-73
2022/07/20 05:28:59;;;;;;;3.47;3.17;;;;;;;21.44;76.13;101076.41;5053052;28;20213;-74
2022/07/20 05:31:25;;;;;;;3.87;3.20;;;;;;;21.58;75.11;101075.50;5043658;28;20207;-74
2022/07/20 05:33:51;;;;;;;3.87;2.90;;;;;;;21.71;73.31;101088.84;5048719;28;20199;-73
2022/07/20 05:36:19;;;;;;;3.40;3.07;;;;;;;21.85;72.67;101079.97;5056762;28;20227;-74
2022/07/20 05:38:46;;;;;;;3.47;3.10;;;;;;;21.99;70.11;101082.56;5060170;28;20199;-74
2022/07/20 05:41:12;;;;;;;3.20;2.90;;;;;;;22.17;66.23;101085.75;5057148;28;20222;-74
2022/07/20 05:43:38;;;;;;;3.20;2.90;;;;;;;22.33;64.74;101093.56;5050285;28;20205;-73
2022/07/20 05:46:05;;;;;;;5.93;2.80;;;;;;;22.49;63.47;101093.38;5052076;28;20217;-74
2022/07/20 05:48:32;;;;;;;3.97;2.97;;;;;;;22.63;62.46;101098.56;5043469;28;20194;-73
2022/07/20 05:50:58;;;;;;;3.77;2.77;;;;;;;22.79;61.66;101100.16;5025374;28;20571;-74
2022/07/20 05:53:26;;;;;;;3.87;2.73;;;;;;;22.92;61.58;101103.66;5050375;28;20562;-74
2022/07/20 05:55:52;;;;;;;4.43;2.77;;;;;;;23.01;61.42;101107.50;5050589;28;20238;-73
2022/07/20 05:58:19;;;;;;;4.60;2.93;;;;;;;23.15;62.16;101101.22;5042145;28;20199;-73
2022/07/20 06:00:45;;;;;;;3.67;3.17;;;;;;;23.25;60.79;101108.44;5048410;28;20210;-74
2022/07/20 06:03:12;;;;;;;4.63;2.97;;;;;;;23.45;57.42;101108.78;5041498;28;20198;-74
2022/07/20 06:05:38;;;;;;;3.85;2.95;;;;;;;23.62;58.88;101110.19;5052059;28;20200;-74
2022/07/20 06:08:05;;;;;;;3.97;2.83;;;;;;;23.75;56.82;101113.66;5065686;28;20194;-73
2022/07/20 06:10:34;;;;;;;2.77;2.57;;;;;;;23.88;56.25;101113.63;5062680;28;20193;-73
2022/07/20 06:13:02;;;;;;;2.90;2.38;;;;;;;24.02;55.78;101117.91;5049463;28;20196;-74
2022/07/20 06:15:28;;;;;;;4.30;2.53;;;;;;;24.15;54.15;101116.03;5053452;28;20245;-74
2022/07/20 06:17:56;;;;;;;3.20;2.72;;;;;;;24.30;54.30;101122.00;5058415;28;20225;-74
2022/07/20 06:20:24;;;;;;;4.20;2.70;;;;;;;24.44;51.99;101117.44;5042422;28;20223;-73
2022/07/20 06:22:50;;;;;;;3.25;2.70;;;;;;;24.58;50.34;101127.91;5059018;28;20545;-74
2022/07/20 06:25:18;;;;;;;2.97;2.58;;;;;;;24.73;51.56;101125.84;5055745;28;20199;-74
2022/07/20 06:27:46;;;;;;;2.92;2.63;;;;;;;24.86;51.89;101123.09;5054875;28;20542;-74
2022/07/20 06:30:14;;;;;;;3.72;2.50;;;;;;;24.98;53.37;101122.13;5055334;28;20243;-73
2022/07/20 06:32:40;;;;;;;2.90;2.60;;;;;;;25.09;51.84;101131.94;5043645;28;20276;-73
2022/07/20 06:35:07;;;;;;;3.28;2.70;;;;;;;25.23;49.70;101131.69;5046098;28;20210;-74
2022/07/20 06:37:34;;;;;;;3.28;2.60;;;;;;;25.38;49.50;101132.31;5034852;28;20269;-74
2022/07/20 06:40:00;;;;;;;5.07;2.30;;;;;;;25.50;51.51;101125.97;5052166;28;20207;-74
2022/07/20 06:42:26;;;;;;;3.72;2.60;;;;;;;25.60;48.92;101122.56;5059661;28;20671;-73
2022/07/20 06:44:54;;;;;;;4.53;2.65;;;;;;;25.71;48.73;101127.84;5042935;28;20550;-74
2022/07/20 06:47:21;;;;;;;2.47;2.28;;;;;;;25.86;47.79;101131.94;5056291;28;20293;-73
2022/07/20 06:49:47;;;;;;;3.05;2.60;;;;;;;25.99;48.36;101125.59;5061158;28;20195;-74
2022/07/20 06:52:14;;;;;;;2.75;2.50;;;;;;;26.15;46.81;101131.34;5044148;28;20191;-74
2022/07/20 06:54:40;;;;;;;2.33;2.13;;;;;;;26.33;46.08;101139.63;5049821;28;20563;-74
2022/07/20 06:57:06;;;;;;;2.40;2.20;;;;;;;26.41;49.02;101128.28;5037337;28;20235;-74
2022/07/20 06:59:33;;;;;;;4.70;2.72;;;;;;;26.44;47.30;101139.56;5048613;28;20196;-74
2022/07/20 07:02:01;;;;;;;3.47;2.63;;;;;;;26.53;47.15;101137.94;5065712;28;20228;-74
2022/07/20 07:04:27;;;;;;;4.80;2.67;;;;;;;26.68;45.43;101143.81;5031620;28;20207;-73
2022/07/20 07:06:54;;;;;;;3.25;2.72;;;;;;;26.85;46.38;101142.34;5061237;28;20214;-73
2022/07/20 07:09:20;;;;;;;4.63;2.53;;;;;;;26.91;44.13;101143.63;5053868;28;20544;-74
2022/07/20 07:11:46;;;;;;;3.35;2.78;;;;;;;27.01;45.31;101139.19;5062252;28;20209;-74
2022/07/20 07:14:13;;;;;;;3.03;2.53;;;;;;;27.15;44.07;101140.63;5053028;28;20198;-73
2022/07/20 07:16:39;;;;;;;6.28;2.60;;;;;;;27.26;45.63;101137.84;5057999;28;20249;-73
2022/07/20 07:19:07;;;;;;;3.88;3.00;;;;;;;27.40;45.50;101136.66;5056893;28;20199;-73
2022/07/20 07:21:33;;;;;;;2.53;2.33;;;;;;;27.54;43.34;101133.56;5062899;28;20301;-74
2022/07/20 07:24:00;;;;;;;2.67;2.35;;;;;;;27.66;46.69;101128.94;5057765;28;20243;-73
2022/07/20 07:26:26;;;;;;;2.85;2.33;;;;;;;27.79;45.57;101131.34;5035549;28;20219;-74
2022/07/20 07:28:52;;;;;;;3.97;2.45;;;;;;;28.00;44.67;101128.56;5030001;28;20192;-74
2022/07/20 07:31:19;;;;;;;6.50;2.58;;;;;;;28.16;44.42;101127.97;5051730;28;20203;-74
2022/07/20 07:33:46;;;;;;;2.78;2.30;;;;;;;28.29;44.32;101133.06;5048774;28;20282;-74
2022/07/20 07:36:14;;;;;;;2.20;2.00;;;;;;;28.43;42.09;101132.59;5052020;28;20219;-74
2022/07/20 07:38:40;;;;;;;2.35;2.15;;;;;;;28.55;41.96;101130.66;5060343;28;20190;-73
2022/07/20 07:41:07;;;;;;;3.15;1.98;;;;;;;28.76;39.65;101141.16;5040200;28;20665;-74
2022/07/20 07:43:33;;;;;;;2.63;2.10;;;;;;;28.92;39.46;101135.19;5042666;28;20519;-74
2022/07/20 07:46:00;;;;;;;2.42;2.20;;;;;;;29.07;40.81;101125.63;5050994;28;20570;-74
2022/07/20 07:48:26;;;;;;;2.85;2.15;;;;;;;29.23;39.39;101132.22;5046110;28;20195;-74
2022/07/20 07:50:53;;;;;;;2.53;2.20;;;;;;;29.34;42.00;101125.78;5043874;28;20553;-74
2022/07/20 07:53:20;;;;;;;2.45;2.25;;;;;;;29.49;38.93;101128.81;5054972;28;20195;-74
2022/07/20 07:55:47;;;;;;;2.90;1.83;;;;;;;29.62;38.28;101138.22;5033101;28;20199;-73
2022/07/20 07:58:14;;;;;;;2.63;2.15;;;;;;;29.80;40.46;101132.03;5040845;28;20277;-74
2022/07/20 08:00:41;;;;;;;2.55;1.60;;;;;;;29.95;38.15;101141.22;5031247;28;20196;-74
2022/07/20 08:03:07;;;;;;;2.25;1.63;;;;;;;30.05;36.34;101145.69;5049215;28;20210;-74
2022/07/20 08:05:35;;;;;;;2.40;1.60;;;;;;;30.10;36.09;101146.06;5040811;28;20209;-74
2022/07/20 08:08:06;;;;;;;2.20;1.50;;;;;;;30.20;36.73;101153.03;5051584;28;20766;-74
2022/07/20 08:10:35;;;;;;;2.50;1.52;;;;;;;30.27;36.32;101142.50;5056749;28;20190;-74
2022/07/20 08:13:01;;;;;;;2.17;1.52;;;;;;;30.38;34.51;101144.13;5054648;28;20199;-74
2022/07/20 08:15:27;;;;;;;2.33;1.40;;;;;;;30.55;34.76;101154.00;5057117;28;20199;-74
2022/07/20 08:17:54;;;;;;;1.40;1.30;;;;;;;30.63;33.37;101153.19;5042780;28;20224;-73
2022/07/20 08:20:22;;;;;;;2.08;1.40;;;;;;;30.79;34.76;101144.38;5046256;28;20200;-74
2022/07/20 08:22:48;;;;;;;3.58;1.48;;;;;;;30.80;32.96;101147.91;5049312;28;20200;-74
2022/07/20 08:25:15;;;;;;;2.22;1.50;;;;;;;30.89;32.49;101139.72;5053166;28;20195;-73
2022/07/20 08:27:43;;;;;;;2.70;1.50;;;;;;;31.01;33.91;101136.75;5056856;28;20783;-74
2022/07/20 08:30:11;;;;;;;4.10;1.40;;;;;;;31.16;32.54;101137.84;5029205;28;20212;-74
2022/07/20 08:32:37;;;;;;;2.22;1.48;;;;;;;31.24;32.11;101139.72;5046682;28;20201;-74
2022/07/20 08:35:04;;;;;;;1.83;1.30;;;;;;;31.39;33.31;101130.00;5053192;28;20199;-74
2022/07/20 08:37:30;;;;;;;1.65;1.40;;;;;;;31.48;32.53;101128.16;5043879;28;20219;-74
2022/07/20 08:39:57;;;;;;;1.65;1.30;;;;;;;31.64;32.39;101128.22;5052627;28;20205;-73
2022/07/20 08:42:24;;;;;;;1.83;1.58;;;;;;;31.74;32.49;101128.06;5055562;28;20213;-73
2022/07/20 08:44:51;;;;;;;2.50;1.50;;;;;;;31.83;31.70;101129.75;5057911;28;20624;-74
2022/07/20 08:47:22;;;;;;;2.10;1.58;;;;;;;32.00;30.72;101125.22;5043535;28;20219;-74
2022/07/20 08:49:52;;;;;;;2.67;1.60;;;;;;;32.17;32.07;101131.50;5059928;28;20225;-73
2022/07/20 08:52:18;;;;;;;3.42;1.35;;;;;;;32.22;31.43;101123.72;5044004;28;20202;-74
2022/07/20 08:54:46;;;;;;;2.05;1.60;;;;;;;32.26;30.61;101122.38;5046680;28;20195;-74
2022/07/20 08:57:15;;;;;;;1.63;1.40;;;;;;;32.37;31.15;101126.56;5052490;28;20696;-73
2022/07/20 08:59:42;;;;;;;2.40;1.70;;;;;;;32.39;33.05;101121.00;5030811;28;20195;-74
2022/07/20 09:02:10;;;;;;;2.53;1.50;;;;;;;32.46;30.65;101127.41;5045827;28;22261;-74
2022/07/20 09:04:50;;;;;;;3.00;1.70;;;;;;;32.53;30.67;101116.75;5048987;28;20665;-73
2022/07/20 09:07:16;;;;;;;1.70;1.60;;;;;;;32.56;31.23;101117.25;5040315;28;20215;-74
2022/07/20 09:09:43;;;;;;;1.52;1.40;;;;;;;32.66;31.72;101108.16;5042378;28;20191;-73
2022/07/20 09:12:09;;;;;;;3.15;1.80;;;;;;;32.74;31.86;101105.44;5047351;28;20210;-73
2022/07/20 09:14:42;;;;;;;1.60;1.42;;;;;;;32.82;29.11;101113.47;5063887;28;20195;-73
2022/07/20 09:17:21;;;;;;;1.60;1.45;;;;;;;33.00;29.09;101114.09;5050262;28;20257;-74
2022/07/20 09:19:55;;;;;;;1.75;1.40;;;;;;;33.19;28.63;101112.84;5045451;28;20757;-74
2022/07/20 09:22:31;;;;;;;1.55;1.45;;;;;;;33.41;28.23;101107.66;5057362;28;20194;-73
2022/07/20 09:25:06;;;;;;;2.75;1.70;;;;;;;33.48;28.82;101108.63;5054163;28;20202;-74
2022/07/20 09:27:33;;;;;;;2.88;1.88;;;;;;;33.48;27.34;101107.78;5047377;28;20219;-74
2022/07/20 09:30:04;;;;;;;1.77;1.52;;;;;;;33.57;27.44;101096.72;5063170;28;20210;-74
2022/07/20 09:32:34;;;;;;;1.85;1.70;;;;;;;33.63;29.84;101094.31;5059544;28;20199;-74
2022/07/20 09:35:01;;;;;;;2.10;1.90;;;;;;;33.54;29.66;101101.66;5058244;28;20206;-73
2022/07/20 09:37:38;;;;;;;1.63;1.52;;;;;;;33.64;28.21;101104.13;5043253;28;20218;-75
2022/07/20 09:40:06;;;;;;;2.05;1.85;;;;;;;33.78;28.48;101100.66;5050417;28;20617;-74
2022/07/20 09:42:37;;;;;;;1.73;1.63;;;;;;;33.88;27.83;101095.84;5040188;28;20212;-73
2022/07/20 09:45:19;;;;;;;3.05;2.05;;;;;;;33.93;29.08;101096.16;5033095;28;20212;-74
2022/07/20 09:50:41;;;;;;;3.38;1.60;;;;;;;34.18;27.81;101095.06;5081045;27;20652;-75
2022/07/20 09:53:09;;;;;;;4.13;2.05;;;;;;;34.35;27.23;101095.78;5058372;28;20694;-75
2022/07/20 09:55:36;;;;;;;1.92;1.73;;;;;;;34.49;26.44;101098.50;5058845;28;20632;-75
2022/07/20 09:58:04;;;;;;;3.20;1.70;;;;;;;34.47;25.63;101092.41;5060739;28;20264;-75
2022/07/20 10:00:32;;;;;;;1.70;1.60;;;;;;;34.60;26.21;101093.63;5060868;28;20225;-75
2022/07/20 10:03:01;;;;;;;1.98;1.75;;;;;;;34.69;26.15;101093.34;5056662;23;20239;-74
2022/07/20 10:05:31;;;;;;;3.58;1.73;;;;;;;34.77;27.07;101086.19;5025977;28;20207;-74
2022/07/20 10:08:03;;;;;;;1.85;1.67;;;;;;;34.75;26.88;101089.06;5005202;28;20248;-74
2022/07/20 10:10:29;;;;;;;1.88;1.73;;;;;;;34.90;26.15;101089.06;5006989;28;20220;-74
2022/07/20 10:12:57;;;;;;;1.80;1.60;;;;;;;34.98;26.45;101082.69;5004326;28;20203;-74
2022/07/20 10:15:29;;;;;;;1.73;1.60;;;;;;;35.09;25.78;101087.59;5002174;28;20220;-74
2022/07/20 10:17:56;;;;;;;3.15;1.88;;;;;;;34.95;27.46;101080.38;5005598;28;20217;-74
2022/07/20 10:20:30;;;;;;;2.20;1.63;;;;;;;34.94;26.43;101084.13;5006095;28;20469;-75
2022/07/20 10:23:29;;;;;;;2.03;1.83;;;;;;;35.04;26.06;101085.50;5004342;28;20201;-74
2022/07/20 10:25:56;;;;;;;2.00;1.80;;;;;;;35.14;25.70;101077.03;4991748;28;20324;-74
2022/07/20 10:28:28;;;;;;;2.97;1.80;;;;;;;35.20;25.47;101073.63;5004615;28;20205;-74
2022/07/20 10:30:56;;;;;;;1.95;1.75;;;;;;;35.20;24.27;101081.75;5007280;28;20227;-74
2022/07/20 10:33:24;;;;;;;1.60;1.50;;;;;;;35.21;25.21;101069.03;5004550;28;20231;-74
2022/07/20 10:35:52;;;;;;;5.72;2.28;;;;;;;35.32;24.81;101068.53;5003756;28;20200;-75
2022/07/20 10:38:40;;;;;;;3.08;1.83;;;;;;;35.47;24.34;101068.47;5002428;28;20197;-74
2022/07/20 10:44:32;;;;;;;2.33;1.90;;;;;;;35.08;24.76;101065.09;5003050;28;20228;-74
2022/07/20 10:46:58;;;;;;;2.00;1.70;;;;;;;35.07;24.76;101052.59;5004156;28;20232;-74
2022/07/20 10:49:59;;;;;;;3.00;1.67;;;;;;;35.28;24.15;101052.84;5006013;28;20572;-74
2022/07/20 10:52:27;;;;;;;2.33;1.80;;;;;;;35.39;23.90;101055.03;5006692;28;20200;-74
2022/07/20 10:54:55;;;;;;;2.25;1.77;;;;;;;35.41;24.78;101050.25;5005539;28;20204;-74
2022/07/20 10:57:22;;;;;;;3.63;1.80;;;;;;;35.53;23.98;101053.28;5000953;28;20236;-74
2022/07/20 11:00:00;;;;;;;2.30;1.85;;;;;;;35.49;24.32;101047.41;5003471;28;20197;-74
2022/07/20 11:02:27;;;;;;;3.20;1.88;;;;;;;35.55;26.11;101045.78;4992032;28;20217;-74
2022/07/20 11:04:53;;;;;;;2.00;1.80;;;;;;;35.67;24.56;101048.81;4993243;28;20196;-74
2022/07/20 11:07:31;;;;;;;2.00;1.80;;;;;;;35.81;24.10;101047.94;4992302;28;20213;-74
2022/07/20 11:10:00;;;;;;;2.30;1.67;;;;;;;35.85;23.71;101042.94;4991687;28;20264;-74
2022/07/20 11:12:28;;;;;;;2.17;1.85;;;;;;;35.92;26.65;101027.56;4993844;28;20686;-75
2022/07/20 11:14:56;;;;;;;2.78;1.77;;;;;;;35.96;25.10;101029.69;4992756;28;20205;-75
2022/07/20 11:17:23;;;;;;;2.10;1.88;;;;;;;35.99;25.34;101039.28;4993320;28;20209;-75
2022/07/20 11:19:50;;;;;;;2.08;1.65;;;;;;;35.91;24.44;101031.31;4993305;28;20244;-74
2022/07/20 11:22:16;;;;;;;2.28;1.83;;;;;;;35.98;24.97;101043.06;4991054;28;20203;-74
2022/07/20 11:24:42;;;;;;;2.40;2.20;;;;;;;35.93;25.16;101048.22;4992150;28;20197;-74
2022/07/20 11:27:15;;;;;;;2.85;1.73;;;;;;;36.04;24.56;101038.69;4988949;28;20229;-74
2022/07/20 11:29:49;;;;;;;1.92;1.80;;;;;;;36.19;24.87;101029.41;4993457;28;20716;-75
2022/07/20 11:32:15;;;;;;;2.25;1.60;;;;;;;36.13;23.23;101029.38;4992154;28;20201;-75
2022/07/20 11:34:47;;;;;;;2.08;1.88;;;;;;;36.22;23.50;101025.50;4993178;28;20205;-74